ENOV

Details ICAO ENOV (HOV)
Name Orsta-Volda Hovden
Region Norway
Timezone Europe/Oslo (UTC+1.0)
Plans Departing 17
Arriving 17
Stats Elevation 243 ft / 74 m (AMSL)
Location 62.179996° 6.073612°
Runways 1
Magnetic Variation 1.155° E
Sunrise 2017-12-15 08:57:44 UTC / 2017-12-15 09:57:44 Local
Sunset 2017-12-15 14:06:45 UTC / 2017-12-15 15:06:45 Local
Advertisement - Login to hide

Runways

ID Width Length Bearing (true) Bearing (mag) Surface Threshold Offset Overrun Length
07 98 ft / 30 m 2,843 ft / 866 m 59.99° 58.83° Asphalt 98 ft / 30 m 0 ft / 0 m
25 98 ft / 30 m 2,843 ft / 866 m 240.01° 238.85° Asphalt 118 ft / 36 m 0 ft / 0 m

Approach Navaids

Runway Type Ident Frequency Range Bearing (true) Bearing (mag) Slope Elevation
07 Localiser HN 111.50 MHz 20 nm / 37 km 121.00° 119.84° - 243 ft / 74 m (AMSL)
07 DME HN 111.50 MHz 25 nm / 46 km - - - 243 ft / 74 m (AMSL)

Map

Weather


0- 5 10 15 20 25 30 35+ Temperature / ° C

Clouds and Precipitation
Forecast for 2017-12-15 12:00 UTC. Updated an hour ago

Ground ~20,000 ft ~40,000 ft Winds

METAR

ENOV 150950Z VRB01KT CAVOK M09/M11 Q0994 RMK WIND 2175FT 29006KT

TAF

Not found
Warning: Do not use this data for real-world aviation or navigation. No guarantee of current accuracy is given.